sensor_id;sensor_type;location;lat;lon;timestamp;temperature;humidity
4759;DHT22;2393;50.560;12.636;2022-10-16T00:00:35;15.10;99.90
4759;DHT22;2393;50.560;12.636;2022-10-16T00:03:58;15.20;99.90
4759;DHT22;2393;50.560;12.636;2022-10-16T00:07:58;15.20;99.90
4759;DHT22;2393;50.560;12.636;2022-10-16T00:27:02;15.30;99.90
4759;DHT22;2393;50.560;12.636;2022-10-16T00:29:34;15.30;99.90
4759;DHT22;2393;50.560;12.636;2022-10-16T00:32:47;15.30;99.90
4759;DHT22;2393;50.560;12.636;2022-10-16T01:08:46;15.30;99.90
4759;DHT22;2393;50.560;12.636;2022-10-16T01:38:03;15.30;99.90
4759;DHT22;2393;50.560;12.636;2022-10-16T02:05:15;15.30;99.90
4759;DHT22;2393;50.560;12.636;2022-10-16T02:07:44;15.30;99.90
4759;DHT22;2393;50.560;12.636;2022-10-16T02:10:20;15.40;99.90
4759;DHT22;2393;50.560;12.636;2022-10-16T02:12:57;15.40;99.90
4759;DHT22;2393;50.560;12.636;2022-10-16T02:15:27;15.40;99.90
4759;DHT22;2393;50.560;12.636;2022-10-16T02:17:55;15.50;99.90
4759;DHT22;2393;50.560;12.636;2022-10-16T02:20:28;15.50;99.90
4759;DHT22;2393;50.560;12.636;2022-10-16T02:23:01;15.50;99.90
4759;DHT22;2393;50.560;12.636;2022-10-16T02:25:31;15.50;99.90
4759;DHT22;2393;50.560;12.636;2022-10-16T02:28:03;15.50;99.90
4759;DHT22;2393;50.560;12.636;2022-10-16T02:31:21;15.50;99.90
4759;DHT22;2393;50.560;12.636;2022-10-16T03:16:14;15.10;99.90
4759;DHT22;2393;50.560;12.636;2022-10-16T03:28:51;15.10;99.90
4759;DHT22;2393;50.560;12.636;2022-10-16T03:40:46;15.10;99.90
4759;DHT22;2393;50.560;12.636;2022-10-16T03:43:38;15.10;99.90
4759;DHT22;2393;50.560;12.636;2022-10-16T03:46:07;15.10;99.90
4759;DHT22;2393;50.560;12.636;2022-10-16T03:48:38;15.10;99.90
4759;DHT22;2393;50.560;12.636;2022-10-16T03:51:07;15.10;99.90
4759;DHT22;2393;50.560;12.636;2022-10-16T03:53:36;15.10;99.90
4759;DHT22;2393;50.560;12.636;2022-10-16T03:56:05;15.10;99.90
4759;DHT22;2393;50.560;12.636;2022-10-16T03:58:33;15.10;99.90
4759;DHT22;2393;50.560;12.636;2022-10-16T04:01:01;15.00;99.90
4759;DHT22;2393;50.560;12.636;2022-10-16T04:03:35;15.00;99.90
4759;DHT22;2393;50.560;12.636;2022-10-16T04:06:14;15.00;99.90
4759;DHT22;2393;50.560;12.636;2022-10-16T04:08:58;15.00;99.90
4759;DHT22;2393;50.560;12.636;2022-10-16T04:11:33;15.00;99.90
4759;DHT22;2393;50.560;12.636;2022-10-16T04:14:10;14.90;99.90
4759;DHT22;2393;50.560;12.636;2022-10-16T04:16:57;14.90;99.90
4759;DHT22;2393;50.560;12.636;2022-10-16T04:19:44;14.90;99.90
4759;DHT22;2393;50.560;12.636;2022-10-16T04:22:25;14.90;99.90
4759;DHT22;2393;50.560;12.636;2022-10-16T04:46:05;15.00;99.90
4759;DHT22;2393;50.560;12.636;2022-10-16T04:53:46;15.00;99.90
4759;DHT22;2393;50.560;12.636;2022-10-16T04:56:18;15.00;99.90
4759;DHT22;2393;50.560;12.636;2022-10-16T04:58:47;15.00;99.90
4759;DHT22;2393;50.560;12.636;2022-10-16T05:01:20;15.00;99.90
4759;DHT22;2393;50.560;12.636;2022-10-16T05:03:51;15.00;99.90
4759;DHT22;2393;50.560;12.636;2022-10-16T05:06:20;15.00;99.90
4759;DHT22;2393;50.560;12.636;2022-10-16T05:09:12;15.00;99.90
4759;DHT22;2393;50.560;12.636;2022-10-16T05:15:58;15.00;99.90
4759;DHT22;2393;50.560;12.636;2022-10-16T05:19:16;14.90;99.90
4759;DHT22;2393;50.560;12.636;2022-10-16T05:27:12;14.90;99.90
4759;DHT22;2393;50.560;12.636;2022-10-16T05:30:13;14.80;99.90
4759;DHT22;2393;50.560;12.636;2022-10-16T05:33:11;14.90;99.90
4759;DHT22;2393;50.560;12.636;2022-10-16T05:36:41;14.80;99.90
4759;DHT22;2393;50.560;12.636;2022-10-16T05:39:04;14.90;99.90
4759;DHT22;2393;50.560;12.636;2022-10-16T05:49:04;14.90;99.90
4759;DHT22;2393;50.560;12.636;2022-10-16T05:51:37;14.90;99.90
4759;DHT22;2393;50.560;12.636;2022-10-16T05:55:33;15.00;99.90
4759;DHT22;2393;50.560;12.636;2022-10-16T05:59:25;15.00;99.90
4759;DHT22;2393;50.560;12.636;2022-10-16T06:03:35;15.00;99.90
4759;DHT22;2393;50.560;12.636;2022-10-16T06:14:54;15.00;99.90
4759;DHT22;2393;50.560;12.636;2022-10-16T06:18:50;15.10;99.90
4759;DHT22;2393;50.560;12.636;2022-10-16T06:25:26;15.30;99.90
4759;DHT22;2393;50.560;12.636;2022-10-16T06:28:19;15.30;99.90
4759;DHT22;2393;50.560;12.636;2022-10-16T06:36:07;15.40;99.90
4759;DHT22;2393;50.560;12.636;2022-10-16T06:39:29;15.40;99.90
4759;DHT22;2393;50.560;12.636;2022-10-16T06:42:26;15.50;99.90
4759;DHT22;2393;50.560;12.636;2022-10-16T06:45:22;15.50;99.90
4759;DHT22;2393;50.560;12.636;2022-10-16T06:48:36;15.60;99.90
4759;DHT22;2393;50.560;12.636;2022-10-16T06:51:34;15.60;99.90
4759;DHT22;2393;50.560;12.636;2022-10-16T06:55:19;15.60;99.90
4759;DHT22;2393;50.560;12.636;2022-10-16T07:11:33;15.80;99.90
4759;DHT22;2393;50.560;12.636;2022-10-16T07:14:51;15.90;99.90
4759;DHT22;2393;50.560;12.636;2022-10-16T08:24:31;17.00;99.90
4759;DHT22;2393;50.560;12.636;2022-10-16T08:27:05;17.00;99.90
4759;DHT22;2393;50.560;12.636;2022-10-16T08:29:48;17.00;99.90
4759;DHT22;2393;50.560;12.636;2022-10-16T08:32:17;17.10;99.90
4759;DHT22;2393;50.560;12.636;2022-10-16T08:36:16;17.10;99.90
4759;DHT22;2393;50.560;12.636;2022-10-16T08:39:18;17.20;99.90
4759;DHT22;2393;50.560;12.636;2022-10-16T08:43:47;17.30;99.90
4759;DHT22;2393;50.560;12.636;2022-10-16T08:46:42;17.40;99.90
4759;DHT22;2393;50.560;12.636;2022-10-16T08:49:24;17.50;99.90
4759;DHT22;2393;50.560;12.636;2022-10-16T08:52:14;17.50;99.90
4759;DHT22;2393;50.560;12.636;2022-10-16T08:55:05;17.50;99.90
4759;DHT22;2393;50.560;12.636;2022-10-16T08:57:35;17.50;99.90
4759;DHT22;2393;50.560;12.636;2022-10-16T09:00:21;17.60;99.90
4759;DHT22;2393;50.560;12.636;2022-10-16T09:06:57;17.70;99.90
4759;DHT22;2393;50.560;12.636;2022-10-16T09:09:38;17.90;99.90
4759;DHT22;2393;50.560;12.636;2022-10-16T09:12:21;18.00;99.90
4759;DHT22;2393;50.560;12.636;2022-10-16T09:15:26;18.20;99.90
4759;DHT22;2393;50.560;12.636;2022-10-16T09:18:17;18.20;99.90
4759;DHT22;2393;50.560;12.636;2022-10-16T09:20:53;18.30;99.90
4759;DHT22;2393;50.560;12.636;2022-10-16T09:23:35;18.30;99.90
4759;DHT22;2393;50.560;12.636;2022-10-16T09:26:11;18.40;99.90
4759;DHT22;2393;50.560;12.636;2022-10-16T09:28:57;18.40;99.90
4759;DHT22;2393;50.560;12.636;2022-10-16T09:31:36;18.40;99.90
4759;DHT22;2393;50.560;12.636;2022-10-16T09:34:27;18.40;99.90
4759;DHT22;2393;50.560;12.636;2022-10-16T09:37:05;18.50;99.90
4759;DHT22;2393;50.560;12.636;2022-10-16T09:39:50;18.50;99.90
4759;DHT22;2393;50.560;12.636;2022-10-16T09:42:38;18.50;99.90
4759;DHT22;2393;50.560;12.636;2022-10-16T09:45:21;18.40;99.90
4759;DHT22;2393;50.560;12.636;2022-10-16T09:47:51;18.40;99.90
4759;DHT22;2393;50.560;12.636;2022-10-16T09:50:30;18.40;99.90
4759;DHT22;2393;50.560;12.636;2022-10-16T09:53:04;18.40;99.90
4759;DHT22;2393;50.560;12.636;2022-10-16T09:55:55;18.40;99.90
4759;DHT22;2393;50.560;12.636;2022-10-16T09:58:24;18.30;99.90
4759;DHT22;2393;50.560;12.636;2022-10-16T10:00:58;18.30;99.90
4759;DHT22;2393;50.560;12.636;2022-10-16T10:03:44;18.40;99.90
4759;DHT22;2393;50.560;12.636;2022-10-16T10:06:21;18.40;99.90
4759;DHT22;2393;50.560;12.636;2022-10-16T10:09:04;18.40;99.90
4759;DHT22;2393;50.560;12.636;2022-10-16T10:11:53;18.40;99.90
4759;DHT22;2393;50.560;12.636;2022-10-16T10:14:27;18.40;99.90
4759;DHT22;2393;50.560;12.636;2022-10-16T10:17:11;18.40;99.90
4759;DHT22;2393;50.560;12.636;2022-10-16T10:19:44;18.50;99.90
4759;DHT22;2393;50.560;12.636;2022-10-16T10:22:39;18.50;99.90
4759;DHT22;2393;50.560;12.636;2022-10-16T10:25:29;18.50;99.90
4759;DHT22;2393;50.560;12.636;2022-10-16T10:28:23;18.60;99.90
4759;DHT22;2393;50.560;12.636;2022-10-16T10:31:03;18.70;99.90
4759;DHT22;2393;50.560;12.636;2022-10-16T10:33:42;18.80;99.90
4759;DHT22;2393;50.560;12.636;2022-10-16T10:36:21;18.80;99.90
4759;DHT22;2393;50.560;12.636;2022-10-16T10:38:54;19.00;99.90
4759;DHT22;2393;50.560;12.636;2022-10-16T10:47:40;19.40;99.90
4759;DHT22;2393;50.560;12.636;2022-10-16T10:50:16;19.50;99.90
4759;DHT22;2393;50.560;12.636;2022-10-16T10:53:05;19.60;99.90
4759;DHT22;2393;50.560;12.636;2022-10-16T10:55:42;19.70;99.90
4759;DHT22;2393;50.560;12.636;2022-10-16T10:58:25;19.70;99.90
4759;DHT22;2393;50.560;12.636;2022-10-16T11:01:18;19.70;99.90
4759;DHT22;2393;50.560;12.636;2022-10-16T11:04:12;19.90;99.90
4759;DHT22;2393;50.560;12.636;2022-10-16T11:06:44;20.00;99.90
4759;DHT22;2393;50.560;12.636;2022-10-16T11:09:17;20.00;99.90
4759;DHT22;2393;50.560;12.636;2022-10-16T11:11:49;20.20;99.90
4759;DHT22;2393;50.560;12.636;2022-10-16T11:14:26;20.60;99.90
4759;DHT22;2393;50.560;12.636;2022-10-16T11:17:00;20.70;99.90
4759;DHT22;2393;50.560;12.636;2022-10-16T11:19:35;20.70;99.90
4759;DHT22;2393;50.560;12.636;2022-10-16T11:22:13;20.70;99.90
4759;DHT22;2393;50.560;12.636;2022-10-16T11:24:48;20.70;99.90
4759;DHT22;2393;50.560;12.636;2022-10-16T11:27:26;20.70;99.90
4759;DHT22;2393;50.560;12.636;2022-10-16T11:29:58;20.70;99.90
4759;DHT22;2393;50.560;12.636;2022-10-16T11:32:31;20.70;99.90
4759;DHT22;2393;50.560;12.636;2022-10-16T11:35:15;20.70;99.90
4759;DHT22;2393;50.560;12.636;2022-10-16T11:37:50;20.80;99.90
4759;DHT22;2393;50.560;12.636;2022-10-16T11:40:30;20.90;99.90
4759;DHT22;2393;50.560;12.636;2022-10-16T11:43:10;21.10;99.90
4759;DHT22;2393;50.560;12.636;2022-10-16T11:45:45;21.20;99.90
4759;DHT22;2393;50.560;12.636;2022-10-16T11:48:22;21.40;99.90
4759;DHT22;2393;50.560;12.636;2022-10-16T11:51:16;21.40;99.90
4759;DHT22;2393;50.560;12.636;2022-10-16T11:53:53;21.50;99.90
4759;DHT22;2393;50.560;12.636;2022-10-16T11:56:38;21.50;99.90
4759;DHT22;2393;50.560;12.636;2022-10-16T11:59:13;21.40;99.90
4759;DHT22;2393;50.560;12.636;2022-10-16T12:01:57;21.50;99.90
4759;DHT22;2393;50.560;12.636;2022-10-16T12:05:11;21.60;99.90
4759;DHT22;2393;50.560;12.636;2022-10-16T12:07:51;21.80;99.90
4759;DHT22;2393;50.560;12.636;2022-10-16T12:10:29;21.80;99.90
4759;DHT22;2393;50.560;12.636;2022-10-16T12:13:31;21.80;99.90
4759;DHT22;2393;50.560;12.636;2022-10-16T12:16:21;21.80;99.90
4759;DHT22;2393;50.560;12.636;2022-10-16T12:19:13;21.90;99.90
4759;DHT22;2393;50.560;12.636;2022-10-16T12:21:42;22.00;99.90
4759;DHT22;2393;50.560;12.636;2022-10-16T12:24:42;22.00;99.90
4759;DHT22;2393;50.560;12.636;2022-10-16T12:27:24;22.00;99.90
4759;DHT22;2393;50.560;12.636;2022-10-16T12:29:57;21.80;99.90
4759;DHT22;2393;50.560;12.636;2022-10-16T12:32:32;21.60;99.90
4759;DHT22;2393;50.560;12.636;2022-10-16T12:35:19;21.50;99.90
4759;DHT22;2393;50.560;12.636;2022-10-16T12:37:52;21.40;99.90
4759;DHT22;2393;50.560;12.636;2022-10-16T12:40:58;21.20;99.90
4759;DHT22;2393;50.560;12.636;2022-10-16T12:43:39;21.10;99.90
4759;DHT22;2393;50.560;12.636;2022-10-16T12:46:37;21.00;99.90
4759;DHT22;2393;50.560;12.636;2022-10-16T12:49:21;21.00;99.90
4759;DHT22;2393;50.560;12.636;2022-10-16T12:51:53;20.80;99.90
4759;DHT22;2393;50.560;12.636;2022-10-16T12:54:31;20.70;99.90
4759;DHT22;2393;50.560;12.636;2022-10-16T12:57:21;20.50;99.90
4759;DHT22;2393;50.560;12.636;2022-10-16T13:00:03;20.30;99.90
4759;DHT22;2393;50.560;12.636;2022-10-16T13:06:09;20.10;99.90
4759;DHT22;2393;50.560;12.636;2022-10-16T13:09:19;20.00;99.90
4759;DHT22;2393;50.560;12.636;2022-10-16T13:12:22;20.00;99.90
4759;DHT22;2393;50.560;12.636;2022-10-16T13:15:15;19.90;99.90
4759;DHT22;2393;50.560;12.636;2022-10-16T13:18:14;19.90;99.90
4759;DHT22;2393;50.560;12.636;2022-10-16T13:20:59;20.00;99.90
4759;DHT22;2393;50.560;12.636;2022-10-16T13:23:35;20.00;99.90
4759;DHT22;2393;50.560;12.636;2022-10-16T13:26:17;20.10;99.90
4759;DHT22;2393;50.560;12.636;2022-10-16T13:28:49;20.10;99.90
4759;DHT22;2393;50.560;12.636;2022-10-16T13:31:22;20.10;99.90
4759;DHT22;2393;50.560;12.636;2022-10-16T13:33:55;20.20;99.90
4759;DHT22;2393;50.560;12.636;2022-10-16T13:36:28;20.10;99.90
4759;DHT22;2393;50.560;12.636;2022-10-16T13:39:12;20.10;99.90
4759;DHT22;2393;50.560;12.636;2022-10-16T13:41:41;20.00;99.90
4759;DHT22;2393;50.560;12.636;2022-10-16T13:44:15;20.10;99.90
4759;DHT22;2393;50.560;12.636;2022-10-16T15:52:25;19.00;99.90
4759;DHT22;2393;50.560;12.636;2022-10-16T15:54:54;18.90;99.90
4759;DHT22;2393;50.560;12.636;2022-10-16T15:57:22;18.80;99.90
4759;DHT22;2393;50.560;12.636;2022-10-16T15:59:50;18.70;99.90
4759;DHT22;2393;50.560;12.636;2022-10-16T16:02:18;18.70;99.90
4759;DHT22;2393;50.560;12.636;2022-10-16T16:04:47;18.60;99.90
4759;DHT22;2393;50.560;12.636;2022-10-16T16:07:15;18.50;99.90
4759;DHT22;2393;50.560;12.636;2022-10-16T16:09:45;18.40;99.90
4759;DHT22;2393;50.560;12.636;2022-10-16T16:12:13;18.40;99.90
4759;DHT22;2393;50.560;12.636;2022-10-16T16:14:41;18.30;99.90
4759;DHT22;2393;50.560;12.636;2022-10-16T16:17:12;18.20;99.90
4759;DHT22;2393;50.560;12.636;2022-10-16T16:19:40;18.10;99.90
4759;DHT22;2393;50.560;12.636;2022-10-16T16:22:09;18.00;99.90
4759;DHT22;2393;50.560;12.636;2022-10-16T16:24:39;18.00;99.90
4759;DHT22;2393;50.560;12.636;2022-10-16T16:27:11;17.90;99.90
4759;DHT22;2393;50.560;12.636;2022-10-16T16:29:40;17.90;99.90
4759;DHT22;2393;50.560;12.636;2022-10-16T16:32:08;17.80;99.90
4759;DHT22;2393;50.560;12.636;2022-10-16T16:34:37;17.70;99.90
4759;DHT22;2393;50.560;12.636;2022-10-16T16:37:05;17.60;99.90
4759;DHT22;2393;50.560;12.636;2022-10-16T16:39:45;17.60;99.90
4759;DHT22;2393;50.560;12.636;2022-10-16T16:42:23;17.50;99.90
4759;DHT22;2393;50.560;12.636;2022-10-16T16:44:55;17.40;99.90
4759;DHT22;2393;50.560;12.636;2022-10-16T16:47:28;17.30;99.90
4759;DHT22;2393;50.560;12.636;2022-10-16T16:50:02;17.20;99.90
4759;DHT22;2393;50.560;12.636;2022-10-16T16:52:44;17.10;99.90
4759;DHT22;2393;50.560;12.636;2022-10-16T16:55:22;16.90;99.90
4759;DHT22;2393;50.560;12.636;2022-10-16T16:58:16;16.70;99.90
4759;DHT22;2393;50.560;12.636;2022-10-16T17:01:00;16.70;99.90
4759;DHT22;2393;50.560;12.636;2022-10-16T17:03:55;16.60;99.90
4759;DHT22;2393;50.560;12.636;2022-10-16T17:06:41;16.60;99.90
4759;DHT22;2393;50.560;12.636;2022-10-16T17:09:18;16.50;99.90
4759;DHT22;2393;50.560;12.636;2022-10-16T17:11:47;16.40;99.90
4759;DHT22;2393;50.560;12.636;2022-10-16T17:14:20;16.40;99.90
4759;DHT22;2393;50.560;12.636;2022-10-16T17:16:49;16.30;99.90
4759;DHT22;2393;50.560;12.636;2022-10-16T17:19:21;16.30;99.90
4759;DHT22;2393;50.560;12.636;2022-10-16T17:22:24;16.30;99.90
4759;DHT22;2393;50.560;12.636;2022-10-16T17:25:12;16.20;99.90
4759;DHT22;2393;50.560;12.636;2022-10-16T17:28:17;16.10;99.90
4759;DHT22;2393;50.560;12.636;2022-10-16T17:36:16;16.00;99.90
4759;DHT22;2393;50.560;12.636;2022-10-16T17:39:53;15.90;99.90
4759;DHT22;2393;50.560;12.636;2022-10-16T17:42:24;15.80;99.90
4759;DHT22;2393;50.560;12.636;2022-10-16T17:45:02;15.80;99.90
4759;DHT22;2393;50.560;12.636;2022-10-16T17:53:00;15.80;99.90
4759;DHT22;2393;50.560;12.636;2022-10-16T17:56:54;15.70;99.90
4759;DHT22;2393;50.560;12.636;2022-10-16T18:00:39;15.70;99.90
4759;DHT22;2393;50.560;12.636;2022-10-16T18:05:01;15.60;99.90
4759;DHT22;2393;50.560;12.636;2022-10-16T18:08:45;15.40;99.90
4759;DHT22;2393;50.560;12.636;2022-10-16T18:11:20;15.40;99.90
4759;DHT22;2393;50.560;12.636;2022-10-16T18:23:19;15.40;99.90
4759;DHT22;2393;50.560;12.636;2022-10-16T18:25:53;15.30;99.90
4759;DHT22;2393;50.560;12.636;2022-10-16T18:28:22;15.30;99.90
4759;DHT22;2393;50.560;12.636;2022-10-16T18:30:54;15.30;99.90
4759;DHT22;2393;50.560;12.636;2022-10-16T18:33:23;15.30;99.90
4759;DHT22;2393;50.560;12.636;2022-10-16T18:35:51;15.30;99.90
4759;DHT22;2393;50.560;12.636;2022-10-16T18:38:19;15.30;99.90
4759;DHT22;2393;50.560;12.636;2022-10-16T18:40:49;15.30;99.90
4759;DHT22;2393;50.560;12.636;2022-10-16T18:43:18;15.30;99.90
4759;DHT22;2393;50.560;12.636;2022-10-16T18:45:54;15.30;99.90
4759;DHT22;2393;50.560;12.636;2022-10-16T18:48:23;15.30;99.90
4759;DHT22;2393;50.560;12.636;2022-10-16T18:50:51;15.30;99.90
4759;DHT22;2393;50.560;12.636;2022-10-16T18:53:19;15.30;99.90
4759;DHT22;2393;50.560;12.636;2022-10-16T18:55:52;15.30;99.90
4759;DHT22;2393;50.560;12.636;2022-10-16T18:58:21;15.30;99.90
4759;DHT22;2393;50.560;12.636;2022-10-16T19:00:49;15.30;99.90
4759;DHT22;2393;50.560;12.636;2022-10-16T19:03:17;15.30;99.90
4759;DHT22;2393;50.560;12.636;2022-10-16T19:05:45;15.30;99.90
4759;DHT22;2393;50.560;12.636;2022-10-16T19:08:13;15.30;99.90
4759;DHT22;2393;50.560;12.636;2022-10-16T19:10:41;15.30;99.90
4759;DHT22;2393;50.560;12.636;2022-10-16T19:13:11;15.30;99.90
4759;DHT22;2393;50.560;12.636;2022-10-16T19:15:42;15.30;99.90
4759;DHT22;2393;50.560;12.636;2022-10-16T19:18:24;15.30;99.90
4759;DHT22;2393;50.560;12.636;2022-10-16T19:20:53;15.20;99.90
4759;DHT22;2393;50.560;12.636;2022-10-16T19:23:21;15.30;99.90
4759;DHT22;2393;50.560;12.636;2022-10-16T19:25:49;15.20;99.90
4759;DHT22;2393;50.560;12.636;2022-10-16T19:28:19;15.20;99.90
4759;DHT22;2393;50.560;12.636;2022-10-16T19:30:47;15.30;99.90
4759;DHT22;2393;50.560;12.636;2022-10-16T19:33:15;15.20;99.90
4759;DHT22;2393;50.560;12.636;2022-10-16T19:35:43;15.20;99.90
4759;DHT22;2393;50.560;12.636;2022-10-16T19:41:07;15.10;99.90
4759;DHT22;2393;50.560;12.636;2022-10-16T19:44:04;15.10;99.90
4759;DHT22;2393;50.560;12.636;2022-10-16T19:46:35;15.10;99.90
4759;DHT22;2393;50.560;12.636;2022-10-16T19:49:05;15.10;99.90
4759;DHT22;2393;50.560;12.636;2022-10-16T19:51:34;15.10;99.90
4759;DHT22;2393;50.560;12.636;2022-10-16T19:54:04;15.10;99.90
4759;DHT22;2393;50.560;12.636;2022-10-16T19:56:33;15.10;99.90
4759;DHT22;2393;50.560;12.636;2022-10-16T19:59:05;15.10;99.90
4759;DHT22;2393;50.560;12.636;2022-10-16T20:01:33;15.10;99.90
4759;DHT22;2393;50.560;12.636;2022-10-16T20:04:02;15.10;99.90
4759;DHT22;2393;50.560;12.636;2022-10-16T20:06:31;15.10;99.90
4759;DHT22;2393;50.560;12.636;2022-10-16T20:08:59;15.10;99.90
4759;DHT22;2393;50.560;12.636;2022-10-16T20:11:32;15.10;99.90
4759;DHT22;2393;50.560;12.636;2022-10-16T20:14:05;15.10;99.90
4759;DHT22;2393;50.560;12.636;2022-10-16T20:16:34;15.00;99.90
4759;DHT22;2393;50.560;12.636;2022-10-16T20:19:04;15.00;99.90
4759;DHT22;2393;50.560;12.636;2022-10-16T20:21:33;14.90;99.90
4759;DHT22;2393;50.560;12.636;2022-10-16T20:24:02;14.90;99.90
4759;DHT22;2393;50.560;12.636;2022-10-16T20:26:34;14.80;99.90
4759;DHT22;2393;50.560;12.636;2022-10-16T20:29:06;14.70;99.90
4759;DHT22;2393;50.560;12.636;2022-10-16T20:31:34;14.60;99.90
4759;DHT22;2393;50.560;12.636;2022-10-16T20:34:06;14.60;99.90
4759;DHT22;2393;50.560;12.636;2022-10-16T20:36:36;14.50;99.90
4759;DHT22;2393;50.560;12.636;2022-10-16T20:39:06;14.40;99.90
4759;DHT22;2393;50.560;12.636;2022-10-16T20:41:35;14.40;99.90
4759;DHT22;2393;50.560;12.636;2022-10-16T20:44:03;14.30;99.90
4759;DHT22;2393;50.560;12.636;2022-10-16T20:46:33;14.20;99.90
4759;DHT22;2393;50.560;12.636;2022-10-16T20:49:01;14.20;99.90
4759;DHT22;2393;50.560;12.636;2022-10-16T20:51:42;14.10;99.90
4759;DHT22;2393;50.560;12.636;2022-10-16T20:54:11;14.10;99.90
4759;DHT22;2393;50.560;12.636;2022-10-16T20:56:39;14.00;99.90
4759;DHT22;2393;50.560;12.636;2022-10-16T20:59:09;13.90;99.90
4759;DHT22;2393;50.560;12.636;2022-10-16T21:01:39;13.90;99.90
4759;DHT22;2393;50.560;12.636;2022-10-16T21:04:08;13.70;99.90
4759;DHT22;2393;50.560;12.636;2022-10-16T21:06:37;13.70;99.90
4759;DHT22;2393;50.560;12.636;2022-10-16T21:09:06;13.60;99.90
4759;DHT22;2393;50.560;12.636;2022-10-16T21:11:35;13.50;99.90
4759;DHT22;2393;50.560;12.636;2022-10-16T21:14:05;13.40;99.90
4759;DHT22;2393;50.560;12.636;2022-10-16T21:16:34;13.40;99.90
4759;DHT22;2393;50.560;12.636;2022-10-16T21:19:03;13.40;99.90
4759;DHT22;2393;50.560;12.636;2022-10-16T21:21:33;13.30;99.90
4759;DHT22;2393;50.560;12.636;2022-10-16T21:24:02;13.30;99.90
4759;DHT22;2393;50.560;12.636;2022-10-16T21:26:31;13.20;99.90
4759;DHT22;2393;50.560;12.636;2022-10-16T21:29:01;13.20;99.90
4759;DHT22;2393;50.560;12.636;2022-10-16T21:31:30;13.20;99.90
4759;DHT22;2393;50.560;12.636;2022-10-16T21:33:58;13.10;99.90
4759;DHT22;2393;50.560;12.636;2022-10-16T21:36:29;13.10;99.90
4759;DHT22;2393;50.560;12.636;2022-10-16T21:38:59;13.10;99.90
4759;DHT22;2393;50.560;12.636;2022-10-16T21:41:28;13.10;99.90
4759;DHT22;2393;50.560;12.636;2022-10-16T21:43:57;13.10;99.90
4759;DHT22;2393;50.560;12.636;2022-10-16T21:46:27;13.10;99.90
4759;DHT22;2393;50.560;12.636;2022-10-16T21:48:59;13.00;99.90
4759;DHT22;2393;50.560;12.636;2022-10-16T21:51:31;13.00;99.90
4759;DHT22;2393;50.560;12.636;2022-10-16T21:54:00;13.00;99.90
4759;DHT22;2393;50.560;12.636;2022-10-16T21:56:28;12.90;99.90
4759;DHT22;2393;50.560;12.636;2022-10-16T21:58:57;13.00;99.90
4759;DHT22;2393;50.560;12.636;2022-10-16T22:01:26;12.90;99.90
4759;DHT22;2393;50.560;12.636;2022-10-16T22:03:54;12.90;99.90
4759;DHT22;2393;50.560;12.636;2022-10-16T22:06:24;12.90;99.90
4759;DHT22;2393;50.560;12.636;2022-10-16T22:08:59;12.90;99.90
4759;DHT22;2393;50.560;12.636;2022-10-16T22:14:50;13.00;99.90
4759;DHT22;2393;50.560;12.636;2022-10-16T22:17:18;13.00;99.90
4759;DHT22;2393;50.560;12.636;2022-10-16T22:19:46;12.90;99.90
4759;DHT22;2393;50.560;12.636;2022-10-16T22:22:14;12.90;99.90
4759;DHT22;2393;50.560;12.636;2022-10-16T22:24:46;13.00;99.90
4759;DHT22;2393;50.560;12.636;2022-10-16T22:27:14;13.00;99.90
4759;DHT22;2393;50.560;12.636;2022-10-16T22:29:42;13.00;99.90
4759;DHT22;2393;50.560;12.636;2022-10-16T22:32:10;12.90;99.90
4759;DHT22;2393;50.560;12.636;2022-10-16T22:34:38;13.00;99.90
4759;DHT22;2393;50.560;12.636;2022-10-16T22:37:06;12.90;99.90
4759;DHT22;2393;50.560;12.636;2022-10-16T22:39:34;12.90;99.90
4759;DHT22;2393;50.560;12.636;2022-10-16T22:42:03;12.90;99.90
4759;DHT22;2393;50.560;12.636;2022-10-16T22:44:32;12.90;99.90
4759;DHT22;2393;50.560;12.636;2022-10-16T22:47:00;12.90;99.90
4759;DHT22;2393;50.560;12.636;2022-10-16T22:49:28;12.80;99.90
4759;DHT22;2393;50.560;12.636;2022-10-16T22:51:56;12.80;99.90
4759;DHT22;2393;50.560;12.636;2022-10-16T22:54:24;12.80;99.90
4759;DHT22;2393;50.560;12.636;2022-10-16T22:56:52;12.70;99.90
4759;DHT22;2393;50.560;12.636;2022-10-16T22:59:22;12.70;99.90
4759;DHT22;2393;50.560;12.636;2022-10-16T23:01:50;12.70;99.90
4759;DHT22;2393;50.560;12.636;2022-10-16T23:04:18;12.60;99.90
4759;DHT22;2393;50.560;12.636;2022-10-16T23:06:46;12.60;99.90
4759;DHT22;2393;50.560;12.636;2022-10-16T23:09:14;12.60;99.90
4759;DHT22;2393;50.560;12.636;2022-10-16T23:11:42;12.50;99.90
4759;DHT22;2393;50.560;12.636;2022-10-16T23:14:10;12.50;99.90
4759;DHT22;2393;50.560;12.636;2022-10-16T23:16:39;12.40;99.90
4759;DHT22;2393;50.560;12.636;2022-10-16T23:19:07;12.40;99.90
4759;DHT22;2393;50.560;12.636;2022-10-16T23:21:40;12.30;99.90
4759;DHT22;2393;50.560;12.636;2022-10-16T23:24:08;12.30;99.90
4759;DHT22;2393;50.560;12.636;2022-10-16T23:26:37;12.30;99.90
4759;DHT22;2393;50.560;12.636;2022-10-16T23:29:05;12.30;99.90
4759;DHT22;2393;50.560;12.636;2022-10-16T23:31:33;12.20;99.90
4759;DHT22;2393;50.560;12.636;2022-10-16T23:34:02;12.20;99.90
4759;DHT22;2393;50.560;12.636;2022-10-16T23:36:30;12.10;99.90
4759;DHT22;2393;50.560;12.636;2022-10-16T23:38:58;12.10;99.90
4759;DHT22;2393;50.560;12.636;2022-10-16T23:41:26;12.10;99.90
4759;DHT22;2393;50.560;12.636;2022-10-16T23:43:54;12.00;99.90
4759;DHT22;2393;50.560;12.636;2022-10-16T23:46:22;12.00;99.90
4759;DHT22;2393;50.560;12.636;2022-10-16T23:48:51;11.90;99.90
4759;DHT22;2393;50.560;12.636;2022-10-16T23:51:20;11.90;99.90
4759;DHT22;2393;50.560;12.636;2022-10-16T23:53:49;11.90;99.90
4759;DHT22;2393;50.560;12.636;2022-10-16T23:56:19;11.90;99.90
4759;DHT22;2393;50.560;12.636;2022-10-16T23:58:47;11.80;99.90
